sensor_id;sensor_type;location;lat;lon;timestamp;pressure;altitude;pressure_sealevel;temperature;humidity
65832;BME280;52593;42.648;23.332;2023-01-28T00:01:15;93892.06;;;-1.50;92.71
65832;BME280;52593;42.648;23.332;2023-01-28T00:03:41;93893.47;;;-1.46;92.90
65832;BME280;52593;42.648;23.332;2023-01-28T00:06:09;93894.28;;;-1.46;93.20
65832;BME280;52593;42.648;23.332;2023-01-28T00:08:36;93896.78;;;-1.44;92.80
65832;BME280;52593;42.648;23.332;2023-01-28T00:11:03;93906.59;;;-1.46;92.96
65832;BME280;52593;42.648;23.332;2023-01-28T00:13:30;93908.13;;;-1.44;93.22
65832;BME280;52593;42.648;23.332;2023-01-28T00:15:57;93916.00;;;-1.44;92.98
65832;BME280;52593;42.648;23.332;2023-01-28T00:18:23;93918.63;;;-1.44;92.88
65832;BME280;52593;42.648;23.332;2023-01-28T00:20:58;93921.69;;;-1.38;92.86
65832;BME280;52593;42.648;23.332;2023-01-28T00:23:25;93928.38;;;-1.34;93.23
65832;BME280;52593;42.648;23.332;2023-01-28T00:25:51;93923.13;;;-1.34;92.17
65832;BME280;52593;42.648;23.332;2023-01-28T00:28:17;93918.69;;;-1.34;91.50
65832;BME280;52593;42.648;23.332;2023-01-28T00:30:42;93922.03;;;-1.32;91.55
65832;BME280;52593;42.648;23.332;2023-01-28T00:33:08;93923.13;;;-1.34;91.06
65832;BME280;52593;42.648;23.332;2023-01-28T00:35:33;93929.53;;;-1.27;91.48
65832;BME280;52593;42.648;23.332;2023-01-28T00:37:58;93929.53;;;-1.27;90.77
65832;BME280;52593;42.648;23.332;2023-01-28T00:40:24;93929.31;;;-1.35;90.98
65832;BME280;52593;42.648;23.332;2023-01-28T00:42:49;93931.13;;;-1.36;90.95
65832;BME280;52593;42.648;23.332;2023-01-28T00:45:15;93933.50;;;-1.33;91.08
65832;BME280;52593;42.648;23.332;2023-01-28T00:47:40;93934.56;;;-1.35;90.84
65832;BME280;52593;42.648;23.332;2023-01-28T00:50:06;93940.28;;;-1.30;91.04
65832;BME280;52593;42.648;23.332;2023-01-28T00:52:31;93939.56;;;-1.32;91.38
65832;BME280;52593;42.648;23.332;2023-01-28T00:54:57;93934.31;;;-1.32;91.83
65832;BME280;52593;42.648;23.332;2023-01-28T00:57:22;93933.38;;;-1.31;90.84
65832;BME280;52593;42.648;23.332;2023-01-28T00:59:48;93942.53;;;-1.26;91.57
65832;BME280;52593;42.648;23.332;2023-01-28T01:02:13;93938.69;;;-1.21;90.54
65832;BME280;52593;42.648;23.332;2023-01-28T01:04:39;93937.78;;;-1.11;90.68
65832;BME280;52593;42.648;23.332;2023-01-28T01:07:05;93930.41;;;-1.17;89.97
65832;BME280;52593;42.648;23.332;2023-01-28T01:09:31;93931.44;;;-1.29;89.45
65832;BME280;52593;42.648;23.332;2023-01-28T01:11:56;93930.59;;;-1.51;90.72
65832;BME280;52593;42.648;23.332;2023-01-28T01:14:21;93937.56;;;-1.40;90.99
65832;BME280;52593;42.648;23.332;2023-01-28T01:16:47;93932.78;;;-1.35;90.67
65832;BME280;52593;42.648;23.332;2023-01-28T01:19:13;93943.78;;;-1.41;91.38
65832;BME280;52593;42.648;23.332;2023-01-28T01:21:38;93947.25;;;-1.40;90.98
65832;BME280;52593;42.648;23.332;2023-01-28T01:24:04;93949.41;;;-1.46;91.25
65832;BME280;52593;42.648;23.332;2023-01-28T01:26:29;93941.53;;;-1.46;90.93
65832;BME280;52593;42.648;23.332;2023-01-28T01:28:55;93950.63;;;-1.50;90.84
65832;BME280;52593;42.648;23.332;2023-01-28T01:31:21;93956.31;;;-1.45;91.51
65832;BME280;52593;42.648;23.332;2023-01-28T01:33:47;93951.56;;;-1.51;91.24
65832;BME280;52593;42.648;23.332;2023-01-28T01:36:15;93946.75;;;-1.34;91.20
65832;BME280;52593;42.648;23.332;2023-01-28T01:38:41;93952.13;;;-1.36;90.56
65832;BME280;52593;42.648;23.332;2023-01-28T01:41:07;93956.38;;;-1.35;91.11
65832;BME280;52593;42.648;23.332;2023-01-28T01:46:13;93950.50;;;-1.48;91.57
65832;BME280;52593;42.648;23.332;2023-01-28T01:48:40;93958.75;;;-1.53;91.58
65832;BME280;52593;42.648;23.332;2023-01-28T01:51:16;93947.09;;;-1.60;92.17
65832;BME280;52593;42.648;23.332;2023-01-28T01:53:46;93960.41;;;-1.52;92.49
65832;BME280;52593;42.648;23.332;2023-01-28T01:56:16;93943.69;;;-1.51;91.93
65832;BME280;52593;42.648;23.332;2023-01-28T01:58:43;93955.13;;;-1.40;90.97
65832;BME280;52593;42.648;23.332;2023-01-28T02:01:10;93953.03;;;-1.58;91.54
65832;BME280;52593;42.648;23.332;2023-01-28T02:03:42;93955.16;;;-1.52;91.66
65832;BME280;52593;42.648;23.332;2023-01-28T02:06:12;93956.38;;;-1.56;92.10
65832;BME280;52593;42.648;23.332;2023-01-28T02:08:37;93959.19;;;-1.48;90.83
65832;BME280;52593;42.648;23.332;2023-01-28T02:11:04;93965.88;;;-1.44;91.51
65832;BME280;52593;42.648;23.332;2023-01-28T02:13:34;93964.81;;;-1.52;91.28
65832;BME280;52593;42.648;23.332;2023-01-28T02:16:02;93967.06;;;-1.48;91.71
65832;BME280;52593;42.648;23.332;2023-01-28T02:18:28;93959.91;;;-1.46;91.92
65832;BME280;52593;42.648;23.332;2023-01-28T02:36:35;93973.06;;;-1.57;91.46
65832;BME280;52593;42.648;23.332;2023-01-28T02:39:11;93970.00;;;-1.62;91.12
65832;BME280;52593;42.648;23.332;2023-01-28T02:41:45;93962.91;;;-1.50;91.54
65832;BME280;52593;42.648;23.332;2023-01-28T02:44:11;93971.94;;;-1.43;91.37
65832;BME280;52593;42.648;23.332;2023-01-28T02:46:37;93971.63;;;-1.50;91.15
65832;BME280;52593;42.648;23.332;2023-01-28T02:49:27;93969.25;;;-1.53;90.21
65832;BME280;52593;42.648;23.332;2023-01-28T02:57:54;93975.94;;;-1.60;90.93
65832;BME280;52593;42.648;23.332;2023-01-28T03:03:19;93968.41;;;-1.53;91.41
65832;BME280;52593;42.648;23.332;2023-01-28T03:05:51;93976.06;;;-1.62;90.65
65832;BME280;52593;42.648;23.332;2023-01-28T03:08:41;93973.94;;;-1.68;91.64
65832;BME280;52593;42.648;23.332;2023-01-28T03:11:29;93979.31;;;-1.69;91.98
65832;BME280;52593;42.648;23.332;2023-01-28T03:14:15;93983.13;;;-1.73;91.94
65832;BME280;52593;42.648;23.332;2023-01-28T03:17:00;93983.13;;;-1.73;92.37
65832;BME280;52593;42.648;23.332;2023-01-28T03:19:45;93981.94;;;-1.69;91.48
65832;BME280;52593;42.648;23.332;2023-01-28T03:22:31;93985.13;;;-1.66;91.61
65832;BME280;52593;42.648;23.332;2023-01-28T03:25:19;93981.13;;;-1.81;92.29
65832;BME280;52593;42.648;23.332;2023-01-28T03:28:08;93974.56;;;-1.75;92.24
65832;BME280;52593;42.648;23.332;2023-01-28T03:33:51;93980.50;;;-1.73;92.09
65832;BME280;52593;42.648;23.332;2023-01-28T03:36:36;93978.84;;;-1.74;92.44
65832;BME280;52593;42.648;23.332;2023-01-28T03:39:34;93985.50;;;-1.70;92.67
65832;BME280;52593;42.648;23.332;2023-01-28T03:42:19;93992.63;;;-1.61;92.02
65832;BME280;52593;42.648;23.332;2023-01-28T03:44:45;93992.25;;;-1.56;91.48
65832;BME280;52593;42.648;23.332;2023-01-28T03:47:24;93983.81;;;-1.60;91.14
65832;BME280;52593;42.648;23.332;2023-01-28T03:49:51;93996.69;;;-1.57;91.34
65832;BME280;52593;42.648;23.332;2023-01-28T03:52:19;93993.84;;;-1.65;90.60
65832;BME280;52593;42.648;23.332;2023-01-28T03:54:45;93994.78;;;-1.66;91.67
65832;BME280;52593;42.648;23.332;2023-01-28T03:57:15;93994.19;;;-1.58;90.78
65832;BME280;52593;42.648;23.332;2023-01-28T03:59:41;93994.56;;;-1.63;90.45
65832;BME280;52593;42.648;23.332;2023-01-28T04:02:08;93996.72;;;-1.68;89.88
65832;BME280;52593;42.648;23.332;2023-01-28T04:04:36;94004.22;;;-1.75;91.20
65832;BME280;52593;42.648;23.332;2023-01-28T04:07:02;94007.34;;;-1.70;91.62
65832;BME280;52593;42.648;23.332;2023-01-28T04:09:27;93996.47;;;-1.65;91.54
65832;BME280;52593;42.648;23.332;2023-01-28T04:11:53;94009.34;;;-1.73;90.77
65832;BME280;52593;42.648;23.332;2023-01-28T04:14:18;94013.78;;;-1.74;90.32
65832;BME280;52593;42.648;23.332;2023-01-28T04:16:44;94007.22;;;-1.80;90.12
65832;BME280;52593;42.648;23.332;2023-01-28T04:19:10;94003.56;;;-1.88;91.33
65832;BME280;52593;42.648;23.332;2023-01-28T04:21:37;94011.06;;;-1.84;91.15
65832;BME280;52593;42.648;23.332;2023-01-28T04:24:03;94019.13;;;-1.75;90.33
65832;BME280;52593;42.648;23.332;2023-01-28T04:26:28;94019.38;;;-1.78;90.03
65832;BME280;52593;42.648;23.332;2023-01-28T04:28:54;94012.00;;;-1.85;89.97
65832;BME280;52593;42.648;23.332;2023-01-28T04:31:19;94028.94;;;-1.77;91.16
65832;BME280;52593;42.648;23.332;2023-01-28T04:33:44;94018.44;;;-1.77;91.01
65832;BME280;52593;42.648;23.332;2023-01-28T04:36:10;94025.94;;;-1.84;90.52
65832;BME280;52593;42.648;23.332;2023-01-28T04:38:35;94018.44;;;-1.77;91.28
65832;BME280;52593;42.648;23.332;2023-01-28T04:41:01;94028.81;;;-1.87;91.13
65832;BME280;52593;42.648;23.332;2023-01-28T04:43:26;94034.06;;;-1.87;92.27
65832;BME280;52593;42.648;23.332;2023-01-28T04:45:51;94046.94;;;-1.84;93.02
65832;BME280;52593;42.648;23.332;2023-01-28T04:48:17;94038.22;;;-1.85;91.73
65832;BME280;52593;42.648;23.332;2023-01-28T04:50:43;94047.66;;;-1.93;92.14
65832;BME280;52593;42.648;23.332;2023-01-28T04:53:08;94047.41;;;-1.90;93.64
65832;BME280;52593;42.648;23.332;2023-01-28T04:55:35;94047.78;;;-1.95;93.34
65832;BME280;52593;42.648;23.332;2023-01-28T04:58:00;94039.78;;;-1.93;93.24
65832;BME280;52593;42.648;23.332;2023-01-28T05:00:26;94050.38;;;-1.95;93.34
65832;BME280;52593;42.648;23.332;2023-01-28T05:02:51;94047.91;;;-2.08;93.72
65832;BME280;52593;42.648;23.332;2023-01-28T05:05:16;94052.88;;;-1.93;94.60
65832;BME280;52593;42.648;23.332;2023-01-28T05:07:42;94051.50;;;-1.98;93.84
65832;BME280;52593;42.648;23.332;2023-01-28T05:10:08;94051.94;;;-2.04;94.24
65832;BME280;52593;42.648;23.332;2023-01-28T05:12:33;94053.84;;;-2.06;93.19
65832;BME280;52593;42.648;23.332;2023-01-28T05:14:59;94060.66;;;-2.03;93.56
65832;BME280;52593;42.648;23.332;2023-01-28T05:17:28;94063.97;;;-2.01;93.57
65832;BME280;52593;42.648;23.332;2023-01-28T05:19:53;94059.91;;;-2.05;93.40
65832;BME280;52593;42.648;23.332;2023-01-28T05:22:18;94070.78;;;-1.99;92.36
65832;BME280;52593;42.648;23.332;2023-01-28T05:24:44;94062.41;;;-2.04;93.50
65832;BME280;52593;42.648;23.332;2023-01-28T05:27:09;94070.78;;;-1.99;93.48
65832;BME280;52593;42.648;23.332;2023-01-28T05:29:35;94068.88;;;-1.97;92.35
65832;BME280;52593;42.648;23.332;2023-01-28T05:32:00;94070.28;;;-2.04;92.56
65832;BME280;52593;42.648;23.332;2023-01-28T05:34:26;94074.97;;;-1.96;91.02
65832;BME280;52593;42.648;23.332;2023-01-28T05:36:52;94075.91;;;-1.97;91.55
65832;BME280;52593;42.648;23.332;2023-01-28T05:39:17;94077.69;;;-1.86;91.17
65832;BME280;52593;42.648;23.332;2023-01-28T05:41:42;94076.13;;;-1.89;90.39
65832;BME280;52593;42.648;23.332;2023-01-28T05:44:08;94078.28;;;-1.94;90.85
65832;BME280;52593;42.648;23.332;2023-01-28T05:46:33;94084.34;;;-1.93;90.81
65832;BME280;52593;42.648;23.332;2023-01-28T05:48:59;94073.53;;;-2.00;90.45
65832;BME280;52593;42.648;23.332;2023-01-28T05:51:24;94082.81;;;-1.85;90.43
65832;BME280;52593;42.648;23.332;2023-01-28T05:53:49;94079.50;;;-1.87;90.42
65832;BME280;52593;42.648;23.332;2023-01-28T05:56:15;94078.63;;;-1.87;90.45
65832;BME280;52593;42.648;23.332;2023-01-28T05:58:40;94081.63;;;-1.92;90.72
65832;BME280;52593;42.648;23.332;2023-01-28T06:01:05;94091.53;;;-1.95;91.34
65832;BME280;52593;42.648;23.332;2023-01-28T06:03:31;94095.56;;;-2.03;90.46
65832;BME280;52593;42.648;23.332;2023-01-28T06:05:56;94089.03;;;-1.97;90.79
65832;BME280;52593;42.648;23.332;2023-01-28T06:08:21;94100.94;;;-1.93;90.12
65832;BME280;52593;42.648;23.332;2023-01-28T06:10:47;94101.78;;;-1.92;90.07
65832;BME280;52593;42.648;23.332;2023-01-28T06:13:12;94108.47;;;-1.88;89.82
65832;BME280;52593;42.648;23.332;2023-01-28T06:15:37;94114.88;;;-1.92;89.87
65832;BME280;52593;42.648;23.332;2023-01-28T06:20:48;94122.28;;;-1.86;90.15
65832;BME280;52593;42.648;23.332;2023-01-28T06:23:14;94125.25;;;-1.91;90.10
65832;BME280;52593;42.648;23.332;2023-01-28T06:25:39;94128.47;;;-1.76;90.68
65832;BME280;52593;42.648;23.332;2023-01-28T06:28:04;94135.75;;;-1.68;90.68
65832;BME280;52593;42.648;23.332;2023-01-28T06:30:30;94138.25;;;-1.67;89.68
65832;BME280;52593;42.648;23.332;2023-01-28T06:32:55;94133.09;;;-1.80;89.84
65832;BME280;52593;42.648;23.332;2023-01-28T06:35:21;94142.75;;;-1.69;91.65
65832;BME280;52593;42.648;23.332;2023-01-28T06:37:47;94144.94;;;-1.74;90.05
65832;BME280;52593;42.648;23.332;2023-01-28T06:40:12;94147.91;;;-1.78;90.16
65832;BME280;52593;42.648;23.332;2023-01-28T06:42:38;94141.94;;;-1.81;90.13
65832;BME280;52593;42.648;23.332;2023-01-28T06:45:03;94144.06;;;-1.86;90.44
65832;BME280;52593;42.648;23.332;2023-01-28T06:47:29;94149.81;;;-1.69;89.70
65832;BME280;52593;42.648;23.332;2023-01-28T06:49:54;94165.56;;;-1.81;90.20
65832;BME280;52593;42.648;23.332;2023-01-28T06:52:20;94163.41;;;-1.75;89.86
65832;BME280;52593;42.648;23.332;2023-01-28T06:54:45;94172.94;;;-1.74;90.60
65832;BME280;52593;42.648;23.332;2023-01-28T06:57:10;94166.50;;;-1.82;89.71
65832;BME280;52593;42.648;23.332;2023-01-28T06:59:36;94166.25;;;-1.78;89.49
65832;BME280;52593;42.648;23.332;2023-01-28T07:02:01;94163.75;;;-1.80;90.21
65832;BME280;52593;42.648;23.332;2023-01-28T07:04:26;94173.91;;;-1.75;89.68
65832;BME280;52593;42.648;23.332;2023-01-28T07:06:52;94181.28;;;-1.81;89.84
65832;BME280;52593;42.648;23.332;2023-01-28T07:09:17;94180.19;;;-1.89;90.56
65832;BME280;52593;42.648;23.332;2023-01-28T07:11:42;94181.88;;;-1.88;90.46
65832;BME280;52593;42.648;23.332;2023-01-28T07:14:08;94184.34;;;-1.98;90.55
65832;BME280;52593;42.648;23.332;2023-01-28T07:16:33;94189.25;;;-1.93;89.81
65832;BME280;52593;42.648;23.332;2023-01-28T07:18:59;94188.31;;;-1.92;91.33
65832;BME280;52593;42.648;23.332;2023-01-28T07:21:24;94197.84;;;-1.91;91.54
65832;BME280;52593;42.648;23.332;2023-01-28T07:23:51;94209.06;;;-1.78;91.56
65832;BME280;52593;42.648;23.332;2023-01-28T07:26:16;94204.06;;;-1.70;89.95
65832;BME280;52593;42.648;23.332;2023-01-28T07:28:44;94211.47;;;-1.64;90.41
65832;BME280;52593;42.648;23.332;2023-01-28T07:31:09;94216.59;;;-1.51;90.44
65832;BME280;52593;42.648;23.332;2023-01-28T07:33:35;94219.34;;;-1.64;89.78
65832;BME280;52593;42.648;23.332;2023-01-28T07:36:00;94219.69;;;-1.57;89.61
65832;BME280;52593;42.648;23.332;2023-01-28T07:38:25;94216.59;;;-1.51;89.18
65832;BME280;52593;42.648;23.332;2023-01-28T07:40:51;94223.38;;;-1.59;89.49
65832;BME280;52593;42.648;23.332;2023-01-28T07:43:16;94218.00;;;-1.69;89.06
65832;BME280;52593;42.648;23.332;2023-01-28T07:45:41;94222.66;;;-1.73;88.74
65832;BME280;52593;42.648;23.332;2023-01-28T07:48:09;94221.81;;;-1.73;89.40
65832;BME280;52593;42.648;23.332;2023-01-28T07:50:36;94225.28;;;-1.62;89.40
65832;BME280;52593;42.648;23.332;2023-01-28T07:53:07;94228.28;;;-1.55;89.61
65832;BME280;52593;42.648;23.332;2023-01-28T07:55:33;94222.31;;;-1.46;92.07
65832;BME280;52593;42.648;23.332;2023-01-28T07:58:04;94226.63;;;-1.45;90.47
65832;BME280;52593;42.648;23.332;2023-01-28T08:00:31;94230.56;;;-1.39;89.73
65832;BME280;52593;42.648;23.332;2023-01-28T08:03:03;94235.06;;;-1.41;88.01
65832;BME280;52593;42.648;23.332;2023-01-28T08:05:47;94233.06;;;-1.37;88.26
65832;BME280;52593;42.648;23.332;2023-01-28T08:08:13;94233.53;;;-1.32;87.49
65832;BME280;52593;42.648;23.332;2023-01-28T08:10:39;94234.47;;;-1.33;87.66
65832;BME280;52593;42.648;23.332;2023-01-28T08:13:05;94242.47;;;-1.35;87.77
65832;BME280;52593;42.648;23.332;2023-01-28T08:15:31;94239.53;;;-1.30;87.88
65832;BME280;52593;42.648;23.332;2023-01-28T08:17:58;94242.72;;;-1.38;88.31
65832;BME280;52593;42.648;23.332;2023-01-28T08:20:25;94241.91;;;-1.27;87.53
65832;BME280;52593;42.648;23.332;2023-01-28T08:22:50;94250.13;;;-1.20;86.67
65832;BME280;52593;42.648;23.332;2023-01-28T08:25:16;94243.44;;;-1.24;86.46
65832;BME280;52593;42.648;23.332;2023-01-28T08:27:41;94243.19;;;-1.21;87.28
65832;BME280;52593;42.648;23.332;2023-01-28T08:30:07;94250.38;;;-1.23;86.76
65832;BME280;52593;42.648;23.332;2023-01-28T08:32:34;94249.31;;;-1.21;88.92
65832;BME280;52593;42.648;23.332;2023-01-28T08:34:59;94259.19;;;-1.24;87.21
65832;BME280;52593;42.648;23.332;2023-01-28T08:37:25;94248.34;;;-1.31;87.34
65832;BME280;52593;42.648;23.332;2023-01-28T08:39:50;94250.97;;;-1.31;87.14
65832;BME280;52593;42.648;23.332;2023-01-28T08:42:16;94250.47;;;-1.14;86.76
65832;BME280;52593;42.648;23.332;2023-01-28T08:44:41;94248.59;;;-1.12;86.27
65832;BME280;52593;42.648;23.332;2023-01-28T08:47:07;94245.13;;;-1.01;86.18
65832;BME280;52593;42.648;23.332;2023-01-28T08:49:32;94248.31;;;-0.97;85.33
65832;BME280;52593;42.648;23.332;2023-01-28T08:51:57;94249.63;;;-0.92;85.65
65832;BME280;52593;42.648;23.332;2023-01-28T08:54:23;94254.28;;;-0.84;85.43
65832;BME280;52593;42.648;23.332;2023-01-28T08:56:48;94247.56;;;-0.77;85.25
65832;BME280;52593;42.648;23.332;2023-01-28T08:59:14;94255.44;;;-0.65;84.61
65832;BME280;52593;42.648;23.332;2023-01-28T09:01:39;94256.03;;;-0.62;83.70
65832;BME280;52593;42.648;23.332;2023-01-28T09:04:05;94255.19;;;-0.62;85.00
65832;BME280;52593;42.648;23.332;2023-01-28T09:06:30;94254.38;;;-0.63;84.38
65832;BME280;52593;42.648;23.332;2023-01-28T09:08:57;94253.19;;;-0.81;84.41
65832;BME280;52593;42.648;23.332;2023-01-28T09:11:23;94250.81;;;-0.84;85.41
65832;BME280;52593;42.648;23.332;2023-01-28T09:13:48;94257.50;;;-0.80;84.85
65832;BME280;52593;42.648;23.332;2023-01-28T09:16:14;94253.69;;;-0.99;85.08
65832;BME280;52593;42.648;23.332;2023-01-28T09:18:40;94259.09;;;-1.12;85.99
65832;BME280;52593;42.648;23.332;2023-01-28T09:21:06;94260.16;;;-1.14;86.54
65832;BME280;52593;42.648;23.332;2023-01-28T09:23:38;94253.56;;;-0.97;86.78
65832;BME280;52593;42.648;23.332;2023-01-28T09:26:05;94258.47;;;-0.93;86.21
65832;BME280;52593;42.648;23.332;2023-01-28T09:28:31;94246.03;;;-0.91;85.74
65832;BME280;52593;42.648;23.332;2023-01-28T09:31:08;94248.28;;;-0.86;85.97
65832;BME280;52593;42.648;23.332;2023-01-28T09:33:35;94248.41;;;-0.76;86.00
65832;BME280;52593;42.648;23.332;2023-01-28T09:36:02;94251.28;;;-0.91;85.77
65832;BME280;52593;42.648;23.332;2023-01-28T09:38:29;94252.63;;;-1.08;86.94
65832;BME280;52593;42.648;23.332;2023-01-28T09:40:55;94255.72;;;-1.14;87.28
65832;BME280;52593;42.648;23.332;2023-01-28T09:46:10;94259.06;;;0.41;88.82
65832;BME280;52593;42.648;23.332;2023-01-28T09:48:43;94259.03;;;-0.23;83.07
65832;BME280;52593;42.648;23.332;2023-01-28T09:53:59;94260.16;;;-0.48;84.59
65832;BME280;52593;42.648;23.332;2023-01-28T09:56:41;94258.06;;;-0.77;85.08
65832;BME280;52593;42.648;23.332;2023-01-28T09:59:26;94251.41;;;-0.81;86.73
65832;BME280;52593;42.648;23.332;2023-01-28T10:01:58;94255.84;;;-0.93;86.76
65832;BME280;52593;42.648;23.332;2023-01-28T10:07:25;94256.09;;;-1.18;87.29
65832;BME280;52593;42.648;23.332;2023-01-28T10:10:15;94252.16;;;-1.13;87.43
65832;BME280;52593;42.648;23.332;2023-01-28T10:16:41;94254.91;;;-1.14;88.43
65832;BME280;52593;42.648;23.332;2023-01-28T10:19:07;94253.59;;;-1.20;89.35
65832;BME280;52593;42.648;23.332;2023-01-28T10:21:39;94252.63;;;-1.19;88.84
65832;BME280;52593;42.648;23.332;2023-01-28T10:26:38;94252.03;;;-1.11;88.99
65832;BME280;52593;42.648;23.332;2023-01-28T10:29:25;94256.22;;;-1.09;88.00
65832;BME280;52593;42.648;23.332;2023-01-28T10:31:58;94257.03;;;-1.08;88.22
65832;BME280;52593;42.648;23.332;2023-01-28T10:34:27;94250.47;;;-1.14;88.16
65832;BME280;52593;42.648;23.332;2023-01-28T10:36:52;94261.09;;;-1.27;88.74
65832;BME280;52593;42.648;23.332;2023-01-28T10:39:20;94261.22;;;-1.05;88.99
65832;BME280;52593;42.648;23.332;2023-01-28T10:41:46;94239.00;;;-1.01;88.55
65832;BME280;52593;42.648;23.332;2023-01-28T10:44:16;94256.56;;;-1.02;87.72
65832;BME280;52593;42.648;23.332;2023-01-28T10:46:44;94253.78;;;-0.89;87.99
65832;BME280;52593;42.648;23.332;2023-01-28T10:49:28;94249.00;;;-0.73;87.69
65832;BME280;52593;42.648;23.332;2023-01-28T10:51:55;94240.41;;;-0.75;86.93
65832;BME280;52593;42.648;23.332;2023-01-28T10:54:22;94239.19;;;-0.70;86.58
65832;BME280;52593;42.648;23.332;2023-01-28T10:56:52;94240.16;;;-0.83;86.70
65832;BME280;52593;42.648;23.332;2023-01-28T10:59:22;94243.28;;;-0.89;87.20
65832;BME280;52593;42.648;23.332;2023-01-28T11:01:53;94240.16;;;-0.83;87.01
65832;BME280;52593;42.648;23.332;2023-01-28T11:04:27;94237.06;;;-0.77;86.99
65832;BME280;52593;42.648;23.332;2023-01-28T11:07:17;94239.19;;;-0.59;86.80
65832;BME280;52593;42.648;23.332;2023-01-28T11:09:48;94241.56;;;-0.67;86.88
65832;BME280;52593;42.648;23.332;2023-01-28T11:12:25;94255.28;;;-0.52;86.75
65832;BME280;52593;42.648;23.332;2023-01-28T11:14:52;94239.06;;;-0.58;85.59
65832;BME280;52593;42.648;23.332;2023-01-28T11:17:20;94240.13;;;-0.49;84.93
65832;BME280;52593;42.648;23.332;2023-01-28T11:19:48;94245.50;;;-0.62;84.84
65832;BME280;52593;42.648;23.332;2023-01-28T11:22:32;94237.06;;;-0.65;85.53
65832;BME280;52593;42.648;23.332;2023-01-28T11:25:02;94238.00;;;-0.55;84.63
65832;BME280;52593;42.648;23.332;2023-01-28T11:27:30;94239.69;;;-0.65;85.07
65832;BME280;52593;42.648;23.332;2023-01-28T11:29:59;94233.34;;;-0.63;84.44
65832;BME280;52593;42.648;23.332;2023-01-28T11:32:28;94238.09;;;-0.57;85.04
65832;BME280;52593;42.648;23.332;2023-01-28T11:34:55;94240.13;;;-0.60;84.25
65832;BME280;52593;42.648;23.332;2023-01-28T11:37:26;94231.91;;;-0.67;84.68
65832;BME280;52593;42.648;23.332;2023-01-28T11:40:16;94244.31;;;-0.58;84.66
65832;BME280;52593;42.648;23.332;2023-01-28T11:42:44;94235.38;;;-0.66;84.17
65832;BME280;52593;42.648;23.332;2023-01-28T11:45:15;94235.34;;;-0.55;83.37
65832;BME280;52593;42.648;23.332;2023-01-28T11:51:05;94223.66;;;-0.30;83.69
65832;BME280;52593;42.648;23.332;2023-01-28T11:53:48;94225.31;;;0.04;82.50
65832;BME280;52593;42.648;23.332;2023-01-28T11:56:25;94222.00;;;-0.31;81.55
65832;BME280;52593;42.648;23.332;2023-01-28T12:01:42;94225.84;;;-0.35;83.29
65832;BME280;52593;42.648;23.332;2023-01-28T12:04:17;94226.75;;;-0.25;83.50
65832;BME280;52593;42.648;23.332;2023-01-28T12:09:54;94229.69;;;-0.39;82.18
65832;BME280;52593;42.648;23.332;2023-01-28T12:12:42;94235.44;;;-0.45;82.15
65832;BME280;52593;42.648;23.332;2023-01-28T12:20:31;94237.69;;;-0.41;82.07
65832;BME280;52593;42.648;23.332;2023-01-28T12:28:50;94236.19;;;-0.22;81.41
65832;BME280;52593;42.648;23.332;2023-01-28T12:31:30;94239.56;;;-0.31;81.33
65832;BME280;52593;42.648;23.332;2023-01-28T12:40:03;94245.25;;;-0.47;82.87
65832;BME280;52593;42.648;23.332;2023-01-28T12:42:44;94237.06;;;-0.33;82.53
65832;BME280;52593;42.648;23.332;2023-01-28T12:45:16;94245.44;;;-0.39;83.28
65832;BME280;52593;42.648;23.332;2023-01-28T12:48:02;94245.63;;;-0.20;83.12
65832;BME280;52593;42.648;23.332;2023-01-28T12:50:46;94253.28;;;-0.28;82.24
65832;BME280;52593;42.648;23.332;2023-01-28T12:53:27;94258.28;;;-0.25;82.07
65832;BME280;52593;42.648;23.332;2023-01-28T12:56:20;94262.16;;;-0.29;82.46
65832;BME280;52593;42.648;23.332;2023-01-28T12:59:10;94268.00;;;-0.25;82.47
65832;BME280;52593;42.648;23.332;2023-01-28T13:01:43;94257.41;;;-0.35;82.29
65832;BME280;52593;42.648;23.332;2023-01-28T13:04:28;94266.16;;;-0.46;82.95
65832;BME280;52593;42.648;23.332;2023-01-28T13:07:00;94256.09;;;-0.41;82.70
65832;BME280;52593;42.648;23.332;2023-01-28T13:09:27;94267.78;;;-0.33;82.09
65832;BME280;52593;42.648;23.332;2023-01-28T13:11:56;94272.69;;;-0.40;81.64
65832;BME280;52593;42.648;23.332;2023-01-28T13:14:28;94268.13;;;-0.27;82.02
65832;BME280;52593;42.648;23.332;2023-01-28T13:16:55;94271.91;;;-0.20;82.26
65832;BME280;52593;42.648;23.332;2023-01-28T13:19:23;94273.69;;;-0.20;81.37
65832;BME280;52593;42.648;23.332;2023-01-28T13:21:48;94275.81;;;-0.14;81.41
65832;BME280;52593;42.648;23.332;2023-01-28T13:26:43;94285.94;;;-0.30;82.37
65832;BME280;52593;42.648;23.332;2023-01-28T13:31:54;94281.88;;;-0.34;83.05
65832;BME280;52593;42.648;23.332;2023-01-28T13:39:47;94280.63;;;-0.19;82.89
65832;BME280;52593;42.648;23.332;2023-01-28T13:42:23;94294.53;;;-0.28;81.93
65832;BME280;52593;42.648;23.332;2023-01-28T13:44:49;94293.22;;;-0.34;82.69
65832;BME280;52593;42.648;23.332;2023-01-28T13:47:28;94294.94;;;-0.44;83.02
65832;BME280;52593;42.648;23.332;2023-01-28T13:50:05;94307.09;;;-0.43;83.03
65832;BME280;52593;42.648;23.332;2023-01-28T13:52:36;94312.97;;;-0.40;83.05
65832;BME280;52593;42.648;23.332;2023-01-28T14:11:02;94313.47;;;-0.46;85.17
65832;BME280;52593;42.648;23.332;2023-01-28T14:16:49;94319.34;;;-0.65;84.61
65832;BME280;52593;42.648;23.332;2023-01-28T14:19:21;94329.25;;;-0.68;85.96
65832;BME280;52593;42.648;23.332;2023-01-28T14:21:51;94324.84;;;-0.68;84.85
65832;BME280;52593;42.648;23.332;2023-01-28T14:24:18;94333.09;;;-0.84;84.24
65832;BME280;52593;42.648;23.332;2023-01-28T14:29:37;94333.78;;;-0.82;85.62
65832;BME280;52593;42.648;23.332;2023-01-28T14:32:14;94334.50;;;-0.80;85.17
65832;BME280;52593;42.648;23.332;2023-01-28T14:34:42;94340.97;;;-0.84;85.15
65832;BME280;52593;42.648;23.332;2023-01-28T14:37:11;94335.97;;;-0.87;84.11
65832;BME280;52593;42.648;23.332;2023-01-28T14:39:45;94334.97;;;-0.86;83.73
65832;BME280;52593;42.648;23.332;2023-01-28T14:42:23;94340.25;;;-0.86;85.20
65832;BME280;52593;42.648;23.332;2023-01-28T14:50:44;94347.19;;;-0.96;85.49
65832;BME280;52593;42.648;23.332;2023-01-28T14:58:48;94342.75;;;-0.96;86.08